Portada
METAR-TAF:

METAR-TAF

Aeropuertos :

Funafuti, Tuvalu

Aeropuerto Internacional de Funafuti

latitud: 08-31S, longitud: 179-13E, altitud: 1 m

Observación

El informe se hizo hace 59 minutos, a las 05:00 UTC
Viento 1 kt con dirección variable
Temperatura 31°C
Humedad 66%
Presión 1008 hPa
Visibilidad 10 km o más
Escasas nubes a una altura de 2000 ft

METAR: NGFU 170500Z VRB01KT 9999 FEW020 31/24 Q1008

Hora: 17:59 (05:59 UTC)

Pronóstico

El informe se hizo hace 38 minutos, a las 05:21 UTC
Pronóstico válido del 17 a las 06 UTC al 18 a las 06 UTC
Viento 3 kt con dirección variable
Visibilidad 10 km o más
Escasas nubes a una altura de 2000 ft

TAF: NGFU 170521Z 1706/1806 VRB03KT 9999 FEW020

Observaciones y pronósticos meteorológicos de más de 4000 aeropuertos (mensajes METAR y TAF).

Los puntos amarillos y rojos representan las estaciones disponibles.

Ponga el ratón en el punto deseado para ver el nombre de la estación.

Haga clic para ver las observaciones y los pronósticos meteorológicos.

Para cambiar el mapa : haga clic en los botones verdes con una cruz de color negro para hacer un zoom, en el botón verde con un guión para alejar o en las flechas verdes para mapas adyacentes.


METAR-TAF: